createdAt,value
2024-03-12T00:01:01.811Z,5.86
2024-03-12T00:03:28.976Z,5.85
2024-03-12T00:06:00.783Z,5.85
2024-03-12T00:08:30.918Z,5.79
2024-03-12T00:10:57.403Z,5.77
2024-03-12T00:13:24.473Z,5.79
2024-03-12T00:15:51.082Z,5.77
2024-03-12T00:18:17.581Z,5.67
2024-03-12T00:20:45.590Z,5.66
2024-03-12T00:23:12.916Z,5.65
2024-03-12T00:25:40.319Z,5.61
2024-03-12T00:28:09.575Z,5.56
2024-03-12T00:30:36.041Z,5.51
2024-03-12T00:33:02.684Z,5.49
2024-03-12T00:35:36.397Z,5.41
2024-03-12T00:38:04.879Z,5.32
2024-03-12T00:40:34.928Z,5.26
2024-03-12T00:43:04.358Z,5.22
2024-03-12T00:45:38.278Z,5.08
2024-03-12T00:48:14.746Z,5.00
2024-03-12T00:50:43.652Z,4.91
2024-03-12T00:53:12.767Z,4.84
2024-03-12T00:55:41.445Z,4.86
2024-03-12T00:58:14.214Z,4.89
2024-03-12T01:00:42.278Z,4.99
2024-03-12T01:03:13.152Z,5.00
2024-03-12T01:05:40.564Z,5.02
2024-03-12T01:08:08.747Z,4.99
2024-03-12T01:10:35.883Z,4.99
2024-03-12T01:13:06.966Z,5.01
2024-03-12T01:15:33.589Z,5.03
2024-03-12T01:18:00.093Z,5.00
2024-03-12T01:20:27.786Z,5.03
2024-03-12T01:22:55.755Z,5.18
2024-03-12T01:25:23.447Z,5.25
2024-03-12T01:27:52.002Z,5.22
2024-03-12T01:30:21.824Z,5.19
2024-03-12T01:32:49.222Z,5.16
2024-03-12T01:35:15.886Z,5.16
2024-03-12T01:37:46.572Z,5.12
2024-03-12T01:40:26.646Z,5.06
2024-03-12T01:42:55.366Z,5.05
2024-03-12T01:45:23.980Z,5.02
2024-03-12T01:47:55.740Z,5.04
2024-03-12T01:50:25.933Z,5.05
2024-03-12T01:53:06.666Z,5.07
2024-03-12T01:55:39.352Z,4.97
2024-03-12T01:58:06.147Z,4.99
2024-03-12T02:00:34.518Z,5.02
2024-03-12T02:03:01.394Z,5.00
2024-03-12T02:05:27.925Z,4.95
2024-03-12T02:07:54.932Z,4.98
2024-03-12T02:10:21.788Z,4.87
2024-03-12T02:12:48.730Z,4.86
2024-03-12T02:15:21.939Z,4.88
2024-03-12T02:17:49.374Z,4.91
2024-03-12T02:20:15.896Z,4.96
2024-03-12T02:22:42.289Z,5.08
2024-03-12T02:25:12.601Z,5.15
2024-03-12T02:27:42.370Z,5.21
2024-03-12T02:30:10.017Z,5.25
2024-03-12T02:32:37.401Z,5.31
2024-03-12T02:35:04.178Z,5.36
2024-03-12T02:37:30.585Z,5.40
2024-03-12T02:39:57.109Z,5.43
2024-03-12T02:42:23.634Z,5.47
2024-03-12T02:44:50.037Z,5.53
2024-03-12T02:47:21.014Z,5.57
2024-03-12T02:49:47.916Z,5.61
2024-03-12T02:52:14.476Z,5.64
2024-03-12T02:54:42.851Z,5.67
2024-03-12T02:57:12.529Z,5.76
2024-03-12T02:59:39.377Z,5.81
2024-03-12T03:02:06.563Z,5.85
2024-03-12T03:04:38.210Z,5.87
2024-03-12T03:07:08.664Z,5.90
2024-03-12T03:09:35.655Z,5.91
2024-03-12T03:12:02.207Z,5.95
2024-03-12T03:14:28.762Z,5.96
2024-03-12T03:16:55.657Z,5.96
2024-03-12T03:19:23.883Z,5.99
2024-03-12T03:21:50.346Z,6.02
2024-03-12T03:24:16.743Z,6.04
2024-03-12T03:26:43.230Z,6.04
2024-03-12T03:29:09.671Z,6.02
2024-03-12T03:31:36.066Z,5.97
2024-03-12T03:34:05.874Z,5.95
2024-03-12T03:36:33.182Z,6.02
2024-03-12T03:38:59.873Z,6.06
2024-03-12T03:41:26.477Z,6.06
2024-03-12T03:43:52.874Z,6.16
2024-03-12T03:46:19.772Z,6.19
2024-03-12T03:48:46.226Z,6.22
2024-03-12T03:51:12.695Z,6.23
2024-03-12T03:53:41.416Z,6.27
2024-03-12T03:56:16.433Z,6.30
2024-03-12T03:58:44.536Z,6.31
2024-03-12T04:01:11.801Z,6.34
2024-03-12T04:03:40.162Z,6.35
2024-03-12T04:06:08.182Z,6.37
2024-03-12T04:08:36.053Z,6.42
2024-03-12T04:11:02.707Z,6.47
2024-03-12T04:13:29.180Z,6.53
2024-03-12T04:15:56.576Z,6.55
2024-03-12T04:18:23.896Z,6.60
2024-03-12T04:20:52.254Z,6.61
2024-03-12T04:23:18.673Z,6.62
2024-03-12T04:25:45.153Z,6.63
2024-03-12T04:28:16.910Z,6.64
2024-03-12T04:30:43.781Z,6.68
2024-03-12T04:33:10.335Z,6.70
2024-03-12T04:35:37.232Z,6.67
2024-03-12T04:38:03.962Z,6.65
2024-03-12T04:40:30.431Z,6.66
2024-03-12T04:42:56.871Z,6.65
2024-03-12T04:45:23.332Z,6.64
2024-03-12T04:47:50.356Z,6.64
2024-03-12T04:50:18.971Z,6.61
2024-03-12T04:52:45.762Z,6.66
2024-03-12T04:55:14.356Z,6.68
2024-03-12T04:57:40.950Z,6.68
2024-03-12T05:00:15.142Z,6.66
2024-03-12T05:02:42.527Z,6.64
2024-03-12T05:05:09.098Z,6.59
2024-03-12T05:07:35.544Z,6.62
2024-03-12T05:10:02.127Z,6.62
2024-03-12T05:12:28.665Z,6.58
2024-03-12T05:14:55.734Z,6.57
2024-03-12T05:17:22.791Z,6.60
2024-03-12T05:19:49.960Z,6.62
2024-03-12T05:22:17.435Z,6.65
2024-03-12T05:24:43.943Z,6.66
2024-03-12T05:27:11.196Z,6.69
2024-03-12T05:29:43.405Z,6.70
2024-03-12T05:32:19.111Z,6.75
2024-03-12T05:34:49.527Z,6.76
2024-03-12T05:37:41.613Z,6.76
2024-03-12T05:40:14.422Z,6.75
2024-03-12T05:42:59.480Z,6.71
2024-03-12T05:45:44.412Z,6.73
2024-03-12T05:48:11.532Z,6.72
2024-03-12T05:50:39.297Z,6.73
2024-03-12T05:53:05.933Z,6.78
2024-03-12T05:55:33.193Z,6.81
2024-03-12T05:57:59.933Z,6.84
2024-03-12T06:00:26.452Z,6.88
2024-03-12T06:02:52.882Z,6.93
2024-03-12T06:05:19.620Z,6.96
2024-03-12T06:07:46.059Z,7.00
2024-03-12T06:10:12.751Z,7.03
2024-03-12T06:12:39.560Z,7.05
2024-03-12T06:15:06.520Z,7.08
2024-03-12T06:17:33.560Z,7.08
2024-03-12T06:20:00.324Z,7.09
2024-03-12T06:22:27.813Z,7.13
2024-03-12T06:24:54.776Z,7.18
2024-03-12T06:27:22.381Z,7.20
2024-03-12T06:29:53.128Z,7.29
2024-03-12T06:32:22.061Z,7.30
2024-03-12T06:34:49.396Z,7.30
2024-03-12T06:37:16.773Z,7.35
2024-03-12T06:39:45.712Z,7.37
2024-03-12T06:42:13.825Z,7.41
2024-03-12T06:44:43.628Z,7.45
2024-03-12T06:47:11.295Z,7.46
2024-03-12T06:49:40.274Z,7.51
2024-03-12T06:52:08.005Z,7.56
2024-03-12T06:54:36.229Z,7.63
2024-03-12T06:57:05.403Z,7.64
2024-03-12T06:59:35.000Z,7.68
2024-03-12T07:02:02.063Z,7.74
2024-03-12T07:04:36.126Z,7.79
2024-03-12T07:07:06.811Z,7.83
2024-03-12T07:09:37.003Z,7.88
2024-03-12T07:12:05.447Z,7.86
2024-03-12T07:14:33.692Z,7.89
2024-03-12T07:17:00.761Z,7.94
2024-03-12T07:19:27.274Z,7.97
2024-03-12T07:21:55.907Z,8.05
2024-03-12T07:24:22.489Z,8.11
2024-03-12T07:26:48.939Z,8.08
2024-03-12T07:29:16.210Z,8.10
2024-03-12T07:31:42.619Z,8.13
2024-03-12T07:34:09.163Z,8.08
2024-03-12T07:36:36.132Z,8.14
2024-03-12T07:39:10.357Z,8.11
2024-03-12T07:41:37.076Z,8.09
2024-03-12T07:44:03.542Z,8.12
2024-03-12T07:46:30.325Z,8.12
2024-03-12T07:48:57.652Z,8.13
2024-03-12T07:51:24.427Z,8.13
2024-03-12T07:53:50.926Z,8.20
2024-03-12T07:56:19.677Z,8.24
2024-03-12T07:58:47.473Z,8.25
2024-03-12T08:01:15.612Z,8.28
2024-03-12T08:03:42.920Z,8.35
2024-03-12T08:06:09.567Z,8.32
2024-03-12T08:08:36.028Z,8.28
2024-03-12T08:11:05.955Z,8.27
2024-03-12T08:13:32.988Z,8.26
2024-03-12T08:15:59.856Z,8.26
2024-03-12T08:18:27.658Z,8.25
2024-03-12T08:20:54.266Z,8.34
2024-03-12T08:23:21.014Z,8.36
2024-03-12T08:25:55.766Z,8.37
2024-03-12T08:28:26.248Z,8.44
2024-03-12T08:30:53.052Z,8.42
2024-03-12T08:33:20.231Z,8.37
2024-03-12T08:35:46.921Z,8.36
2024-03-12T08:38:13.541Z,8.43
2024-03-12T08:40:40.009Z,8.42
2024-03-12T08:43:08.946Z,8.41
2024-03-12T08:45:36.935Z,8.43
2024-03-12T08:48:07.208Z,8.56
2024-03-12T08:50:36.502Z,8.72
2024-03-12T08:53:03.101Z,8.85
2024-03-12T08:55:30.034Z,8.96
2024-03-12T08:57:56.682Z,9.07
2024-03-12T09:00:23.137Z,9.12
2024-03-12T09:02:50.656Z,9.13
2024-03-12T09:05:18.404Z,9.11
2024-03-12T09:07:46.512Z,9.06
2024-03-12T09:10:14.149Z,9.01
2024-03-12T09:12:44.254Z,9.10
2024-03-12T09:15:11.323Z,9.33
2024-03-12T09:17:38.733Z,9.62
2024-03-12T09:20:12.074Z,9.83
2024-03-12T09:22:39.014Z,10.04
2024-03-12T09:25:06.373Z,10.15
2024-03-12T09:27:33.157Z,10.27
2024-03-12T09:29:59.632Z,10.18
2024-03-12T09:32:26.071Z,10.27
2024-03-12T09:34:55.402Z,10.45
2024-03-12T09:37:22.208Z,10.37
2024-03-12T09:39:52.615Z,10.78
2024-03-12T09:42:23.774Z,11.20
2024-03-12T09:44:51.568Z,11.39
2024-03-12T09:47:18.834Z,11.49
2024-03-12T09:49:45.678Z,11.59
2024-03-12T09:52:12.713Z,11.80
2024-03-12T09:54:40.093Z,12.01
2024-03-12T09:57:13.073Z,12.06
2024-03-12T09:59:41.437Z,11.82
2024-03-12T10:02:11.376Z,12.06
2024-03-12T10:04:38.969Z,12.26
2024-03-12T10:07:07.048Z,12.44
2024-03-12T10:09:33.673Z,12.64
2024-03-12T10:12:03.524Z,12.81
2024-03-12T10:14:31.277Z,12.59
2024-03-12T10:17:15.108Z,12.55
2024-03-12T10:19:48.677Z,12.52
2024-03-12T10:22:22.087Z,12.83
2024-03-12T10:24:49.958Z,13.29
2024-03-12T10:27:17.470Z,13.47
2024-03-12T10:29:44.061Z,13.68
2024-03-12T10:32:21.114Z,13.84
2024-03-12T10:34:48.489Z,13.68
2024-03-12T10:37:33.356Z,13.58
2024-03-12T10:40:20.479Z,13.00
2024-03-12T10:42:52.593Z,12.82
2024-03-12T10:45:19.390Z,12.77
2024-03-12T10:47:49.072Z,12.80
2024-03-12T10:50:17.544Z,13.03
2024-03-12T10:52:46.455Z,13.12
2024-03-12T10:55:22.350Z,13.04
2024-03-12T10:57:56.355Z,13.13
2024-03-12T11:00:26.621Z,13.17
2024-03-12T11:02:57.103Z,13.24
2024-03-12T11:05:30.757Z,13.75
2024-03-12T11:07:59.020Z,13.57
2024-03-12T11:10:28.247Z,13.42
2024-03-12T11:12:56.402Z,13.09
2024-03-12T11:15:24.499Z,12.85
2024-03-12T11:17:51.838Z,12.58
2024-03-12T11:20:27.470Z,12.28
2024-03-12T11:22:57.589Z,11.97
2024-03-12T11:25:28.413Z,11.79
2024-03-12T11:28:27.480Z,11.64
2024-03-12T11:31:03.173Z,11.65
2024-03-12T11:33:39.021Z,11.67
2024-03-12T11:36:25.187Z,11.53
2024-03-12T11:38:53.113Z,11.37
2024-03-12T11:41:22.664Z,11.27
2024-03-12T11:43:49.844Z,11.25
2024-03-12T11:46:21.782Z,11.44
2024-03-12T11:48:49.979Z,11.60
2024-03-12T11:51:16.741Z,11.80
2024-03-12T11:53:46.271Z,11.86
2024-03-12T11:56:19.640Z,11.98
2024-03-12T11:59:02.344Z,12.13
2024-03-12T12:01:34.048Z,12.34
2024-03-12T12:04:06.608Z,12.33
2024-03-12T12:06:34.130Z,12.60
2024-03-12T12:09:09.749Z,12.88
2024-03-12T12:11:39.089Z,13.15
2024-03-12T12:14:07.321Z,13.51
2024-03-12T12:16:34.010Z,13.73
2024-03-12T12:19:12.064Z,14.21
2024-03-12T12:21:44.081Z,14.42
2024-03-12T12:24:12.294Z,14.26
2024-03-12T12:26:40.080Z,13.94
2024-03-12T12:29:10.677Z,13.74
2024-03-12T12:31:38.524Z,13.41
2024-03-12T12:34:12.046Z,13.25
2024-03-12T12:36:44.366Z,13.07
2024-03-12T12:39:12.936Z,12.86
2024-03-12T12:41:44.335Z,12.79
2024-03-12T12:44:16.929Z,12.75
2024-03-12T12:46:44.581Z,12.73
2024-03-12T12:49:14.898Z,12.63
2024-03-12T12:51:42.635Z,12.56
2024-03-12T12:54:10.544Z,12.30
2024-03-12T12:56:42.400Z,12.18
2024-03-12T12:59:15.536Z,12.26
2024-03-12T13:01:42.304Z,12.34
2024-03-12T13:04:30.738Z,12.42
2024-03-12T13:06:58.203Z,12.43
2024-03-12T13:09:36.781Z,12.47
2024-03-12T13:12:08.611Z,12.59
2024-03-12T13:14:38.068Z,12.42
2024-03-12T13:17:06.584Z,12.10
2024-03-12T13:19:33.972Z,11.91
2024-03-12T13:22:01.816Z,11.91
2024-03-12T13:24:30.967Z,11.88
2024-03-12T13:26:59.280Z,11.80
2024-03-12T13:29:26.435Z,11.69
2024-03-12T13:31:54.262Z,11.47
2024-03-12T13:34:21.030Z,11.38
2024-03-12T13:36:48.981Z,11.44
2024-03-12T13:39:16.564Z,11.16
2024-03-12T13:41:43.164Z,11.08
2024-03-12T13:44:09.694Z,10.97
2024-03-12T13:46:37.249Z,10.86
2024-03-12T13:49:12.942Z,10.73
2024-03-12T13:51:40.439Z,10.61
2024-03-12T13:54:09.814Z,10.54
2024-03-12T13:56:37.727Z,10.51
2024-03-12T13:59:07.835Z,10.51
2024-03-12T14:01:34.499Z,10.44
2024-03-12T14:04:01.418Z,10.40
2024-03-12T14:06:29.234Z,10.35
2024-03-12T14:08:55.751Z,10.26
2024-03-12T14:11:22.457Z,10.21
2024-03-12T14:13:50.960Z,10.19
2024-03-12T14:16:19.827Z,10.17
2024-03-12T14:18:50.608Z,10.24
2024-03-12T14:21:17.566Z,10.38
2024-03-12T14:23:43.984Z,10.52
2024-03-12T14:26:10.444Z,10.53
2024-03-12T14:28:36.896Z,10.52
2024-03-12T14:31:03.981Z,10.52
2024-03-12T14:33:30.617Z,10.57
2024-03-12T14:35:57.052Z,10.60
2024-03-12T14:38:24.055Z,10.67
2024-03-12T14:40:50.826Z,10.73
2024-03-12T14:43:17.397Z,10.61
2024-03-12T14:45:47.265Z,10.54
2024-03-12T14:48:14.365Z,10.61
2024-03-12T14:50:41.018Z,10.64
2024-03-12T14:53:09.071Z,10.54
2024-03-12T14:55:35.778Z,10.43
2024-03-12T14:58:02.354Z,10.45
2024-03-12T15:00:29.816Z,10.35
2024-03-12T15:02:57.046Z,10.28
2024-03-12T15:05:24.783Z,10.19
2024-03-12T15:07:51.386Z,10.16
2024-03-12T15:10:20.470Z,10.21
2024-03-12T15:12:46.967Z,10.15
2024-03-12T15:15:14.306Z,10.10
2024-03-12T15:17:42.032Z,10.03
2024-03-12T15:20:16.122Z,9.90
2024-03-12T15:22:43.811Z,9.81
2024-03-12T15:25:13.428Z,9.64
2024-03-12T15:27:41.161Z,9.51
2024-03-12T15:30:08.434Z,9.33
2024-03-12T15:32:36.933Z,9.16
2024-03-12T15:35:05.327Z,9.17
2024-03-12T15:37:33.217Z,9.09
2024-03-12T15:40:06.972Z,9.06
2024-03-12T15:42:35.229Z,9.02
2024-03-12T15:45:05.854Z,9.11
2024-03-12T15:47:35.716Z,9.04
2024-03-12T15:50:02.528Z,8.98
2024-03-12T15:52:29.086Z,8.89
2024-03-12T15:54:55.624Z,8.84
2024-03-12T15:57:23.624Z,8.77
2024-03-12T15:59:50.252Z,8.79
2024-03-12T16:02:16.887Z,8.80
2024-03-12T16:04:43.882Z,8.82
2024-03-12T16:07:10.438Z,8.75
2024-03-12T16:09:37.139Z,8.73
2024-03-12T16:12:03.740Z,8.69
2024-03-12T16:14:30.197Z,8.58
2024-03-12T16:16:56.896Z,8.53
2024-03-12T16:19:24.031Z,8.55
2024-03-12T16:21:50.937Z,8.64
2024-03-12T16:24:17.436Z,8.63
2024-03-12T16:26:44.235Z,8.61
2024-03-12T16:29:10.730Z,8.67
2024-03-12T16:31:37.177Z,8.72
2024-03-12T16:34:05.653Z,8.73
2024-03-12T16:36:32.589Z,8.80
2024-03-12T16:39:00.296Z,8.79
2024-03-12T16:41:27.509Z,8.75
2024-03-12T16:43:55.531Z,8.70
2024-03-12T16:46:22.060Z,8.66
2024-03-12T16:48:48.620Z,8.61
2024-03-12T16:51:16.466Z,8.61
2024-03-12T16:53:43.014Z,8.60
2024-03-12T16:56:10.539Z,8.60
2024-03-12T16:58:44.214Z,8.53
2024-03-12T17:01:13.131Z,8.54
2024-03-12T17:03:39.880Z,8.54
2024-03-12T17:06:06.807Z,8.53
2024-03-12T17:08:33.572Z,8.58
2024-03-12T17:11:00.422Z,8.52
2024-03-12T17:13:27.892Z,8.49
2024-03-12T17:15:56.052Z,8.52
2024-03-12T17:18:25.247Z,8.54
2024-03-12T17:20:58.706Z,8.55
2024-03-12T17:23:25.457Z,8.54
2024-03-12T17:25:53.897Z,8.45
2024-03-12T17:28:20.793Z,8.46
2024-03-12T17:30:47.590Z,8.44
2024-03-12T17:33:14.312Z,8.53
2024-03-12T17:35:41.992Z,8.44
2024-03-12T17:38:13.964Z,8.39
2024-03-12T17:40:41.242Z,8.42
2024-03-12T17:43:08.154Z,8.45
2024-03-12T17:45:35.034Z,8.56
2024-03-12T17:48:05.520Z,8.61
2024-03-12T17:50:33.015Z,8.57
2024-03-12T17:53:01.635Z,8.54
2024-03-12T17:55:29.437Z,8.46
2024-03-12T17:57:56.413Z,8.44
2024-03-12T18:00:23.373Z,8.41
2024-03-12T18:02:50.785Z,8.40
2024-03-12T18:05:20.630Z,8.44
2024-03-12T18:07:49.385Z,8.47
2024-03-12T18:10:18.039Z,8.49
2024-03-12T18:12:45.693Z,8.40
2024-03-12T18:15:13.119Z,8.36
2024-03-12T18:17:40.705Z,8.34
2024-03-12T18:20:13.370Z,8.34
2024-03-12T18:22:41.366Z,8.29
2024-03-12T18:25:11.958Z,8.36
2024-03-12T18:27:44.237Z,8.39
2024-03-12T18:30:11.913Z,8.32
2024-03-12T18:32:41.445Z,8.26
2024-03-12T18:35:09.512Z,8.23
2024-03-12T18:37:39.654Z,8.20
2024-03-12T18:40:12.996Z,8.19
2024-03-12T18:42:42.363Z,8.26
2024-03-12T18:45:19.348Z,8.18
2024-03-12T18:47:50.776Z,8.12
2024-03-12T18:50:18.405Z,8.10
2024-03-12T18:52:48.850Z,8.04
2024-03-12T18:55:18.021Z,8.04
2024-03-12T18:57:46.763Z,7.97
2024-03-12T19:00:15.835Z,7.83
2024-03-12T19:02:49.410Z,7.78
2024-03-12T19:05:21.334Z,7.79
2024-03-12T19:07:50.406Z,7.80
2024-03-12T19:10:19.211Z,8.07
2024-03-12T19:12:46.602Z,8.04
2024-03-12T19:15:15.873Z,7.94
2024-03-12T19:17:45.329Z,7.95
2024-03-12T19:20:16.333Z,7.99
2024-03-12T19:22:51.721Z,7.92
2024-03-12T19:25:20.007Z,7.90
2024-03-12T19:27:49.542Z,7.86
2024-03-12T19:30:21.049Z,7.87
2024-03-12T19:32:51.949Z,7.86
2024-03-12T19:35:19.537Z,7.84
2024-03-12T19:37:47.090Z,7.92
2024-03-12T19:40:17.353Z,8.03
2024-03-12T19:42:49.843Z,8.03
2024-03-12T19:45:19.118Z,7.98
2024-03-12T19:47:46.755Z,8.00
2024-03-12T19:50:18.943Z,7.95
2024-03-12T19:52:50.006Z,7.91
2024-03-12T19:55:25.759Z,7.85
2024-03-12T19:57:57.290Z,7.82
2024-03-12T20:00:32.319Z,7.83
2024-03-12T20:03:00.925Z,7.83
2024-03-12T20:05:31.289Z,7.87
2024-03-12T20:07:59.033Z,7.90
2024-03-12T20:10:26.611Z,7.85
2024-03-12T20:12:56.437Z,7.84
2024-03-12T20:15:24.387Z,7.81
2024-03-12T20:17:52.118Z,7.76
2024-03-12T20:20:18.989Z,7.76
2024-03-12T20:22:52.032Z,7.83
2024-03-12T20:25:20.197Z,7.80
2024-03-12T20:27:53.944Z,7.83
2024-03-12T20:30:23.325Z,7.80
2024-03-12T20:32:53.002Z,7.75
2024-03-12T20:35:19.602Z,7.77
2024-03-12T20:37:46.797Z,7.76
2024-03-12T20:40:13.569Z,7.76
2024-03-12T20:42:41.004Z,7.75
2024-03-12T20:45:11.154Z,7.77
2024-03-12T20:47:39.699Z,7.75
2024-03-12T20:50:08.379Z,7.75
2024-03-12T20:52:39.273Z,7.73
2024-03-12T20:55:09.828Z,7.76
2024-03-12T20:57:36.839Z,7.75
2024-03-12T21:00:17.628Z,7.73
2024-03-12T21:02:46.865Z,7.68
2024-03-12T21:05:14.128Z,7.64
2024-03-12T21:07:40.692Z,7.65
2024-03-12T21:10:08.077Z,7.70
2024-03-12T21:12:34.882Z,7.72
2024-03-12T21:15:07.376Z,7.70
2024-03-12T21:17:35.101Z,7.67
2024-03-12T21:20:02.157Z,7.63
2024-03-12T21:22:28.662Z,7.64
2024-03-12T21:24:59.383Z,7.64
2024-03-12T21:27:27.982Z,7.62
2024-03-12T21:29:54.668Z,7.58
2024-03-12T21:32:21.088Z,7.55
2024-03-12T21:34:48.227Z,7.55
2024-03-12T21:37:14.847Z,7.53
2024-03-12T21:39:41.442Z,7.50
2024-03-12T21:42:07.981Z,7.46
2024-03-12T21:44:35.844Z,7.41
2024-03-12T21:47:02.367Z,7.29
2024-03-12T21:49:28.811Z,7.25
2024-03-12T21:51:56.344Z,7.20
2024-03-12T21:54:23.753Z,7.15
2024-03-12T21:56:50.210Z,7.02
2024-03-12T21:59:18.314Z,7.01
2024-03-12T22:01:45.093Z,6.97
2024-03-12T22:04:11.605Z,6.91
2024-03-12T22:06:38.621Z,6.87
2024-03-12T22:09:05.159Z,6.79
2024-03-12T22:11:31.684Z,6.73
2024-03-12T22:13:58.644Z,6.77
2024-03-12T22:16:25.494Z,6.69
2024-03-12T22:18:52.427Z,6.63
2024-03-12T22:21:23.796Z,6.55
2024-03-12T22:23:50.312Z,6.57
2024-03-12T22:26:16.898Z,6.50
2024-03-12T22:28:43.528Z,6.43
2024-03-12T22:31:11.193Z,6.36
2024-03-12T22:33:41.697Z,6.31
2024-03-12T22:36:08.605Z,6.31
2024-03-12T22:38:36.523Z,6.29
2024-03-12T22:41:06.142Z,6.21
2024-03-12T22:43:38.764Z,6.08
2024-03-12T22:46:11.241Z,6.05
2024-03-12T22:48:38.169Z,6.01
2024-03-12T22:51:05.412Z,5.90
2024-03-12T22:53:33.013Z,5.82
2024-03-12T22:56:00.078Z,5.72
2024-03-12T22:58:28.296Z,5.65
2024-03-12T23:00:55.667Z,5.59
2024-03-12T23:03:23.640Z,5.50
2024-03-12T23:05:50.498Z,5.46
2024-03-12T23:08:20.440Z,5.33
2024-03-12T23:10:47.833Z,5.24
2024-03-12T23:13:17.175Z,5.21
2024-03-12T23:15:44.494Z,5.15
2024-03-12T23:18:13.003Z,5.07
2024-03-12T23:20:41.255Z,5.02
2024-03-12T23:23:08.674Z,4.95
2024-03-12T23:25:37.160Z,4.88
2024-03-12T23:28:05.324Z,4.85
2024-03-12T23:30:35.771Z,4.78
2024-03-12T23:33:03.174Z,4.66
2024-03-12T23:35:30.064Z,4.60
2024-03-12T23:37:59.647Z,4.59
2024-03-12T23:40:26.764Z,4.54
2024-03-12T23:42:54.955Z,4.49
2024-03-12T23:45:22.159Z,4.44
2024-03-12T23:47:49.613Z,4.39
2024-03-12T23:50:16.372Z,4.36
2024-03-12T23:52:42.929Z,4.30
2024-03-12T23:55:10.358Z,4.20
2024-03-12T23:57:38.116Z,4.16
